sensor_id;sensor_type;location;lat;lon;timestamp;pressure;altitude;pressure_sealevel;temperature;humidity
9415;BME280;4746;35.664;139.738;2023-04-07T00:01:02;100136.91;;;23.07;57.79
9415;BME280;4746;35.664;139.738;2023-04-07T00:03:29;100136.09;;;23.05;57.75
9415;BME280;4746;35.664;139.738;2023-04-07T00:05:57;100106.53;;;23.04;57.99
9415;BME280;4746;35.664;139.738;2023-04-07T00:08:25;100105.38;;;23.09;58.30
9415;BME280;4746;35.664;139.738;2023-04-07T00:10:53;100128.97;;;23.26;57.84
9415;BME280;4746;35.664;139.738;2023-04-07T00:13:20;100083.34;;;23.33;57.38
9415;BME280;4746;35.664;139.738;2023-04-07T00:15:48;100115.78;;;23.29;57.11
9415;BME280;4746;35.664;139.738;2023-04-07T00:18:15;100064.13;;;23.34;57.34
9415;BME280;4746;35.664;139.738;2023-04-07T00:20:43;100028.03;;;23.59;56.67
9415;BME280;4746;35.664;139.738;2023-04-07T00:23:10;100060.59;;;23.71;55.99
9415;BME280;4746;35.664;139.738;2023-04-07T00:25:38;100083.53;;;23.84;56.27
9415;BME280;4746;35.664;139.738;2023-04-07T00:28:05;100063.44;;;23.84;55.67
9415;BME280;4746;35.664;139.738;2023-04-07T00:30:33;100135.91;;;23.82;55.71
9415;BME280;4746;35.664;139.738;2023-04-07T00:33:00;100111.38;;;23.85;55.67
9415;BME280;4746;35.664;139.738;2023-04-07T00:35:28;100115.22;;;23.78;55.10
9415;BME280;4746;35.664;139.738;2023-04-07T00:37:55;100111.38;;;23.85;54.94
9415;BME280;4746;35.664;139.738;2023-04-07T00:40:23;100159.28;;;23.87;54.96
9415;BME280;4746;35.664;139.738;2023-04-07T00:42:51;100129.94;;;23.81;54.80
9415;BME280;4746;35.664;139.738;2023-04-07T00:45:19;100076.38;;;23.69;54.58
9415;BME280;4746;35.664;139.738;2023-04-07T00:47:46;100050.50;;;23.63;54.79
9415;BME280;4746;35.664;139.738;2023-04-07T00:50:14;100016.88;;;23.56;54.66
9415;BME280;4746;35.664;139.738;2023-04-07T00:52:42;100056.19;;;23.54;55.17
9415;BME280;4746;35.664;139.738;2023-04-07T00:55:09;100157.53;;;23.49;55.43
9415;BME280;4746;35.664;139.738;2023-04-07T00:57:37;100067.78;;;23.49;55.50
9415;BME280;4746;35.664;139.738;2023-04-07T01:00:06;100025.22;;;23.45;55.72
9415;BME280;4746;35.664;139.738;2023-04-07T01:02:47;100117.84;;;23.41;56.31
9415;BME280;4746;35.664;139.738;2023-04-07T01:11:22;100051.91;;;23.16;57.30
9415;BME280;4746;35.664;139.738;2023-04-07T01:13:52;100002.13;;;23.18;58.00
9415;BME280;4746;35.664;139.738;2023-04-07T01:16:38;100012.72;;;23.33;57.95
9415;BME280;4746;35.664;139.738;2023-04-07T01:21:59;100044.59;;;23.41;57.82
9415;BME280;4746;35.664;139.738;2023-04-07T01:25:06;100005.94;;;23.65;57.55
9415;BME280;4746;35.664;139.738;2023-04-07T01:27:59;99984.06;;;23.84;57.18
9415;BME280;4746;35.664;139.738;2023-04-07T01:30:39;99970.19;;;23.99;57.47
9415;BME280;4746;35.664;139.738;2023-04-07T01:33:10;99967.56;;;24.16;56.56
9415;BME280;4746;35.664;139.738;2023-04-07T01:35:40;100005.59;;;24.23;56.28
9415;BME280;4746;35.664;139.738;2023-04-07T01:38:10;100046.28;;;24.30;55.92
9415;BME280;4746;35.664;139.738;2023-04-07T01:40:40;99992.56;;;24.38;55.30
9415;BME280;4746;35.664;139.738;2023-04-07T01:43:09;99969.19;;;24.51;54.91
9415;BME280;4746;35.664;139.738;2023-04-07T01:45:37;100002.44;;;24.50;54.31
9415;BME280;4746;35.664;139.738;2023-04-07T01:48:07;99979.88;;;24.48;54.32
9415;BME280;4746;35.664;139.738;2023-04-07T01:50:37;100044.56;;;24.29;54.07
9415;BME280;4746;35.664;139.738;2023-04-07T01:53:06;99951.63;;;24.03;54.51
9415;BME280;4746;35.664;139.738;2023-04-07T01:55:34;99968.41;;;23.82;55.22
9415;BME280;4746;35.664;139.738;2023-04-07T01:58:06;99977.31;;;23.62;55.96
9415;BME280;4746;35.664;139.738;2023-04-07T02:00:34;99975.44;;;23.47;56.42
9415;BME280;4746;35.664;139.738;2023-04-07T02:03:21;100025.09;;;23.48;55.97
9415;BME280;4746;35.664;139.738;2023-04-07T02:05:55;99980.88;;;23.25;56.73
9415;BME280;4746;35.664;139.738;2023-04-07T02:08:27;100046.16;;;23.08;57.15
9415;BME280;4746;35.664;139.738;2023-04-07T02:10:56;100027.63;;;22.95;57.51
9415;BME280;4746;35.664;139.738;2023-04-07T02:13:26;100009.69;;;22.87;58.54
9415;BME280;4746;35.664;139.738;2023-04-07T02:15:58;99990.06;;;22.79;59.40
9415;BME280;4746;35.664;139.738;2023-04-07T02:18:29;100100.00;;;22.74;59.46
9415;BME280;4746;35.664;139.738;2023-04-07T02:20:59;100032.03;;;22.56;60.03
9415;BME280;4746;35.664;139.738;2023-04-07T02:23:27;100030.88;;;22.43;60.26
9415;BME280;4746;35.664;139.738;2023-04-07T02:25:57;99988.50;;;22.56;60.66
9415;BME280;4746;35.664;139.738;2023-04-07T02:28:25;99989.28;;;22.77;60.76
9415;BME280;4746;35.664;139.738;2023-04-07T02:30:52;99986.56;;;22.97;60.62
9415;BME280;4746;35.664;139.738;2023-04-07T02:33:20;99961.31;;;23.15;59.94
9415;BME280;4746;35.664;139.738;2023-04-07T02:35:47;99931.44;;;23.55;59.80
9415;BME280;4746;35.664;139.738;2023-04-07T02:38:15;99917.69;;;23.85;59.14
9415;BME280;4746;35.664;139.738;2023-04-07T02:40:42;99992.53;;;24.06;58.22
9415;BME280;4746;35.664;139.738;2023-04-07T02:43:10;99984.28;;;24.13;57.68
9415;BME280;4746;35.664;139.738;2023-04-07T02:45:38;99876.81;;;24.15;57.40
9415;BME280;4746;35.664;139.738;2023-04-07T02:48:06;99965.72;;;24.18;56.60
9415;BME280;4746;35.664;139.738;2023-04-07T02:50:33;99928.13;;;24.19;55.82
9415;BME280;4746;35.664;139.738;2023-04-07T02:53:01;99972.66;;;24.19;55.63
9415;BME280;4746;35.664;139.738;2023-04-07T02:55:28;99910.78;;;24.16;55.13
9415;BME280;4746;35.664;139.738;2023-04-07T02:57:56;99971.09;;;24.15;55.04
9415;BME280;4746;35.664;139.738;2023-04-07T03:00:26;99966.13;;;24.26;55.04
9415;BME280;4746;35.664;139.738;2023-04-07T03:02:53;99966.91;;;24.28;53.96
9415;BME280;4746;35.664;139.738;2023-04-07T03:05:21;99978.94;;;24.15;53.55
9415;BME280;4746;35.664;139.738;2023-04-07T03:07:51;99960.41;;;24.02;53.74
9415;BME280;4746;35.664;139.738;2023-04-07T03:10:19;99914.75;;;23.91;53.59
9415;BME280;4746;35.664;139.738;2023-04-07T03:12:47;99910.91;;;23.98;53.62
9415;BME280;4746;35.664;139.738;2023-04-07T03:15:15;99923.84;;;24.01;53.51
9415;BME280;4746;35.664;139.738;2023-04-07T03:17:42;99907.50;;;23.96;53.10
9415;BME280;4746;35.664;139.738;2023-04-07T03:20:10;99899.75;;;23.94;53.33
9415;BME280;4746;35.664;139.738;2023-04-07T03:22:37;99898.44;;;23.86;53.08
9415;BME280;4746;35.664;139.738;2023-04-07T03:25:05;99920.31;;;23.85;53.23
9415;BME280;4746;35.664;139.738;2023-04-07T03:27:33;99959.75;;;23.82;53.10
9415;BME280;4746;35.664;139.738;2023-04-07T03:30:01;99898.00;;;23.78;53.38
9415;BME280;4746;35.664;139.738;2023-04-07T03:32:29;99939.88;;;23.78;53.18
9415;BME280;4746;35.664;139.738;2023-04-07T03:34:56;99918.41;;;23.72;53.23
9415;BME280;4746;35.664;139.738;2023-04-07T03:37:24;99882.44;;;23.58;53.76
9415;BME280;4746;35.664;139.738;2023-04-07T03:39:51;99954.00;;;23.57;53.61
9415;BME280;4746;35.664;139.738;2023-04-07T03:42:19;99891.38;;;23.54;53.74
9415;BME280;4746;35.664;139.738;2023-04-07T03:44:46;99869.19;;;23.61;53.89
9415;BME280;4746;35.664;139.738;2023-04-07T03:47:14;99876.59;;;23.70;53.27
9415;BME280;4746;35.664;139.738;2023-04-07T03:49:42;99848.56;;;23.89;53.13
9415;BME280;4746;35.664;139.738;2023-04-07T03:52:09;99883.94;;;24.13;52.81
9415;BME280;4746;35.664;139.738;2023-04-07T03:54:37;99893.25;;;24.34;52.01
9415;BME280;4746;35.664;139.738;2023-04-07T03:57:04;99879.78;;;24.41;51.43
9415;BME280;4746;35.664;139.738;2023-04-07T03:59:32;99876.22;;;24.42;51.55
9415;BME280;4746;35.664;139.738;2023-04-07T04:01:59;99916.06;;;24.32;51.68
9415;BME280;4746;35.664;139.738;2023-04-07T04:04:27;99844.75;;;24.27;51.67
9415;BME280;4746;35.664;139.738;2023-04-07T04:06:54;99876.16;;;24.27;51.74
9415;BME280;4746;35.664;139.738;2023-04-07T04:09:22;99835.38;;;24.23;52.00
9415;BME280;4746;35.664;139.738;2023-04-07T04:11:49;99867.22;;;24.15;51.64
9415;BME280;4746;35.664;139.738;2023-04-07T04:14:17;99853.03;;;24.19;52.15
9415;BME280;4746;35.664;139.738;2023-04-07T04:16:45;99856.75;;;24.31;52.07
9415;BME280;4746;35.664;139.738;2023-04-07T04:19:12;99809.78;;;24.28;51.77
9415;BME280;4746;35.664;139.738;2023-04-07T04:21:40;99794.31;;;24.23;52.22
9415;BME280;4746;35.664;139.738;2023-04-07T04:24:07;99833.53;;;24.25;52.57
9415;BME280;4746;35.664;139.738;2023-04-07T04:26:35;99785.63;;;24.23;52.10
9415;BME280;4746;35.664;139.738;2023-04-07T04:29:02;99814.34;;;24.24;52.38
9415;BME280;4746;35.664;139.738;2023-04-07T04:31:30;99753.94;;;24.27;52.49
9415;BME280;4746;35.664;139.738;2023-04-07T04:33:57;99764.91;;;24.34;52.68
9415;BME280;4746;35.664;139.738;2023-04-07T04:36:25;99831.22;;;24.34;52.87
9415;BME280;4746;35.664;139.738;2023-04-07T04:38:53;99758.75;;;24.35;52.71
9415;BME280;4746;35.664;139.738;2023-04-07T04:41:20;99741.81;;;24.40;52.90
9415;BME280;4746;35.664;139.738;2023-04-07T04:43:48;99787.50;;;24.52;52.54
9415;BME280;4746;35.664;139.738;2023-04-07T04:46:16;99726.44;;;24.65;52.71
9415;BME280;4746;35.664;139.738;2023-04-07T04:48:43;99724.91;;;24.76;52.26
9415;BME280;4746;35.664;139.738;2023-04-07T04:51:11;99738.22;;;24.87;52.21
9415;BME280;4746;35.664;139.738;2023-04-07T04:53:38;99700.81;;;24.99;52.46
9415;BME280;4746;35.664;139.738;2023-04-07T04:56:07;99779.72;;;25.10;52.40
9415;BME280;4746;35.664;139.738;2023-04-07T04:58:35;99710.97;;;25.19;52.29
9415;BME280;4746;35.664;139.738;2023-04-07T05:01:02;99729.19;;;25.64;51.96
9415;BME280;4746;35.664;139.738;2023-04-07T05:03:31;99771.72;;;26.65;50.09
9415;BME280;4746;35.664;139.738;2023-04-07T05:05:59;99690.72;;;27.45;48.36
9415;BME280;4746;35.664;139.738;2023-04-07T05:08:27;99691.59;;;28.30;46.20
9415;BME280;4746;35.664;139.738;2023-04-07T05:10:55;99677.03;;;28.37;45.88
9415;BME280;4746;35.664;139.738;2023-04-07T05:13:22;99707.09;;;27.99;46.34
9415;BME280;4746;35.664;139.738;2023-04-07T05:15:51;99687.69;;;27.51;46.34
9415;BME280;4746;35.664;139.738;2023-04-07T05:18:19;99727.66;;;27.07;47.33
9415;BME280;4746;35.664;139.738;2023-04-07T05:20:49;99688.34;;;26.67;47.96
9415;BME280;4746;35.664;139.738;2023-04-07T05:23:16;99675.78;;;26.31;48.68
9415;BME280;4746;35.664;139.738;2023-04-07T05:25:46;99687.53;;;25.99;49.86
9415;BME280;4746;35.664;139.738;2023-04-07T05:28:13;99682.28;;;25.72;50.76
9415;BME280;4746;35.664;139.738;2023-04-07T05:30:41;99640.06;;;25.48;51.18
9415;BME280;4746;35.664;139.738;2023-04-07T05:33:09;99679.88;;;25.27;51.38
9415;BME280;4746;35.664;139.738;2023-04-07T05:35:36;99709.72;;;25.11;51.31
9415;BME280;4746;35.664;139.738;2023-04-07T05:38:04;99661.06;;;24.91;51.79
9415;BME280;4746;35.664;139.738;2023-04-07T05:40:31;99714.53;;;24.89;52.05
9415;BME280;4746;35.664;139.738;2023-04-07T05:42:59;99678.38;;;24.80;52.45
9415;BME280;4746;35.664;139.738;2023-04-07T05:45:26;99680.88;;;24.67;52.28
9415;BME280;4746;35.664;139.738;2023-04-07T05:47:54;99671.50;;;24.63;52.93
9415;BME280;4746;35.664;139.738;2023-04-07T05:50:22;99667.28;;;24.61;52.83
9415;BME280;4746;35.664;139.738;2023-04-07T05:52:49;99652.25;;;24.64;53.43
9415;BME280;4746;35.664;139.738;2023-04-07T05:55:17;99630.34;;;24.65;53.72
9415;BME280;4746;35.664;139.738;2023-04-07T05:57:44;99675.91;;;24.63;53.76
9415;BME280;4746;35.664;139.738;2023-04-07T06:00:15;99651.06;;;24.54;54.12
9415;BME280;4746;35.664;139.738;2023-04-07T06:02:42;99635.69;;;24.49;53.91
9415;BME280;4746;35.664;139.738;2023-04-07T06:05:10;99655.47;;;24.39;53.97
9415;BME280;4746;35.664;139.738;2023-04-07T06:07:37;99634.22;;;24.29;53.93
9415;BME280;4746;35.664;139.738;2023-04-07T06:10:08;99649.91;;;24.29;54.04
9415;BME280;4746;35.664;139.738;2023-04-07T06:12:36;99659.25;;;24.19;54.44
9415;BME280;4746;35.664;139.738;2023-04-07T06:15:04;99609.94;;;24.12;54.51
9415;BME280;4746;35.664;139.738;2023-04-07T06:17:32;99714.00;;;24.08;55.02
9415;BME280;4746;35.664;139.738;2023-04-07T06:20:00;99642.78;;;24.02;55.50
9415;BME280;4746;35.664;139.738;2023-04-07T06:22:27;99600.50;;;23.94;55.75
9415;BME280;4746;35.664;139.738;2023-04-07T06:24:55;99636.47;;;23.90;56.52
9415;BME280;4746;35.664;139.738;2023-04-07T06:27:22;99627.03;;;23.88;57.01
9415;BME280;4746;35.664;139.738;2023-04-07T06:29:50;99612.16;;;23.88;57.04
9415;BME280;4746;35.664;139.738;2023-04-07T06:32:17;99595.38;;;23.92;57.25
9415;BME280;4746;35.664;139.738;2023-04-07T06:34:46;99609.38;;;23.91;56.67
9415;BME280;4746;35.664;139.738;2023-04-07T06:37:13;99614.88;;;23.87;57.22
9415;BME280;4746;35.664;139.738;2023-04-07T06:39:42;99641.38;;;23.81;57.27
9415;BME280;4746;35.664;139.738;2023-04-07T06:42:11;99630.91;;;23.81;57.79
9415;BME280;4746;35.664;139.738;2023-04-07T06:44:38;99638.75;;;23.81;57.69
9415;BME280;4746;35.664;139.738;2023-04-07T06:47:06;99610.31;;;23.75;57.48
9415;BME280;4746;35.664;139.738;2023-04-07T06:49:35;99601.84;;;23.70;57.80
9415;BME280;4746;35.664;139.738;2023-04-07T06:52:03;99626.31;;;23.69;57.70
9415;BME280;4746;35.664;139.738;2023-04-07T06:54:30;99618.91;;;23.62;57.73
9415;BME280;4746;35.664;139.738;2023-04-07T06:56:58;99584.97;;;23.60;58.60
9415;BME280;4746;35.664;139.738;2023-04-07T06:59:25;99584.97;;;23.60;58.15
9415;BME280;4746;35.664;139.738;2023-04-07T07:01:53;99584.97;;;23.60;58.10
9415;BME280;4746;35.664;139.738;2023-04-07T07:04:20;99604.22;;;23.59;57.76
9415;BME280;4746;35.664;139.738;2023-04-07T07:06:48;99581.75;;;23.55;58.38
9415;BME280;4746;35.664;139.738;2023-04-07T07:09:15;99556.88;;;23.48;58.57
9415;BME280;4746;35.664;139.738;2023-04-07T07:11:42;99589.34;;;23.44;58.86
9415;BME280;4746;35.664;139.738;2023-04-07T07:14:10;99600.13;;;23.38;59.38
9415;BME280;4746;35.664;139.738;2023-04-07T07:16:38;99596.00;;;23.34;59.47
9415;BME280;4746;35.664;139.738;2023-04-07T07:19:06;99583.13;;;23.31;59.68
9415;BME280;4746;35.664;139.738;2023-04-07T07:21:35;99621.56;;;23.29;59.74
9415;BME280;4746;35.664;139.738;2023-04-07T07:24:03;99562.78;;;23.21;60.03
9415;BME280;4746;35.664;139.738;2023-04-07T07:26:31;99582.09;;;23.18;60.20
9415;BME280;4746;35.664;139.738;2023-04-07T07:28:58;99577.00;;;23.15;60.01
9415;BME280;4746;35.664;139.738;2023-04-07T07:31:26;99592.88;;;23.12;60.53
9415;BME280;4746;35.664;139.738;2023-04-07T07:33:53;99620.09;;;23.08;60.82
9415;BME280;4746;35.664;139.738;2023-04-07T07:36:21;99567.97;;;23.06;60.92
9415;BME280;4746;35.664;139.738;2023-04-07T07:38:50;99559.38;;;23.04;61.06
9415;BME280;4746;35.664;139.738;2023-04-07T07:41:18;99559.47;;;23.02;61.24
9415;BME280;4746;35.664;139.738;2023-04-07T07:43:45;99569.19;;;22.99;61.73
9415;BME280;4746;35.664;139.738;2023-04-07T07:46:12;99563.53;;;22.91;62.06
9415;BME280;4746;35.664;139.738;2023-04-07T07:48:40;99563.88;;;22.85;62.41
9415;BME280;4746;35.664;139.738;2023-04-07T07:51:07;99562.25;;;22.82;62.46
9415;BME280;4746;35.664;139.738;2023-04-07T07:53:35;99534.50;;;22.80;62.48
9415;BME280;4746;35.664;139.738;2023-04-07T07:56:02;99580.47;;;22.84;62.70
9415;BME280;4746;35.664;139.738;2023-04-07T07:58:30;99527.63;;;22.79;63.07
9415;BME280;4746;35.664;139.738;2023-04-07T08:00:57;99526.63;;;22.81;62.81
9415;BME280;4746;35.664;139.738;2023-04-07T08:03:25;99497.59;;;22.86;63.10
9415;BME280;4746;35.664;139.738;2023-04-07T08:05:54;99545.31;;;22.89;63.08
9415;BME280;4746;35.664;139.738;2023-04-07T08:08:22;99564.47;;;22.90;63.05
9415;BME280;4746;35.664;139.738;2023-04-07T08:10:50;99530.41;;;22.91;62.96
9415;BME280;4746;35.664;139.738;2023-04-07T08:13:17;99533.94;;;22.90;62.80
9415;BME280;4746;35.664;139.738;2023-04-07T08:15:45;99541.69;;;22.92;62.72
9415;BME280;4746;35.664;139.738;2023-04-07T08:18:12;99522.66;;;22.90;63.08
9415;BME280;4746;35.664;139.738;2023-04-07T08:20:40;99515.56;;;22.92;63.02
9415;BME280;4746;35.664;139.738;2023-04-07T08:23:07;99505.44;;;22.86;63.26
9415;BME280;4746;35.664;139.738;2023-04-07T08:25:35;99503.94;;;22.82;63.59
9415;BME280;4746;35.664;139.738;2023-04-07T08:28:02;99503.16;;;22.80;63.89
9415;BME280;4746;35.664;139.738;2023-04-07T08:30:36;99518.69;;;22.83;63.33
9415;BME280;4746;35.664;139.738;2023-04-07T08:33:08;99598.31;;;22.76;63.44
9415;BME280;4746;35.664;139.738;2023-04-07T08:35:35;99573.28;;;22.72;63.19
9415;BME280;4746;35.664;139.738;2023-04-07T08:38:03;99616.91;;;22.70;63.32
9415;BME280;4746;35.664;139.738;2023-04-07T08:40:32;99529.69;;;22.72;63.12
9415;BME280;4746;35.664;139.738;2023-04-07T08:43:07;99590.78;;;22.70;63.34
9415;BME280;4746;35.664;139.738;2023-04-07T08:45:38;99549.22;;;22.65;63.54
9415;BME280;4746;35.664;139.738;2023-04-07T08:48:29;99543.00;;;22.68;63.47
9415;BME280;4746;35.664;139.738;2023-04-07T08:51:07;99579.22;;;22.58;63.58
9415;BME280;4746;35.664;139.738;2023-04-07T08:53:44;99559.59;;;22.50;63.81
9415;BME280;4746;35.664;139.738;2023-04-07T08:56:17;99530.47;;;22.42;64.16
9415;BME280;4746;35.664;139.738;2023-04-07T08:58:50;99503.47;;;22.41;64.62
9415;BME280;4746;35.664;139.738;2023-04-07T09:01:20;99525.56;;;22.36;64.80
9415;BME280;4746;35.664;139.738;2023-04-07T09:03:49;99504.97;;;22.30;65.42
9415;BME280;4746;35.664;139.738;2023-04-07T09:06:17;99514.19;;;22.20;65.93
9415;BME280;4746;35.664;139.738;2023-04-07T09:08:45;99521.38;;;22.15;66.23
9415;BME280;4746;35.664;139.738;2023-04-07T09:11:14;99495.44;;;22.12;66.30
9415;BME280;4746;35.664;139.738;2023-04-07T09:13:50;99522.47;;;22.11;66.54
9415;BME280;4746;35.664;139.738;2023-04-07T09:16:18;99521.69;;;22.09;67.24
9415;BME280;4746;35.664;139.738;2023-04-07T09:18:46;99511.53;;;22.03;67.11
9415;BME280;4746;35.664;139.738;2023-04-07T09:21:15;99494.22;;;22.02;67.89
9415;BME280;4746;35.664;139.738;2023-04-07T09:23:44;99474.28;;;22.01;68.23
9415;BME280;4746;35.664;139.738;2023-04-07T09:26:30;99503.50;;;22.08;67.32
9415;BME280;4746;35.664;139.738;2023-04-07T09:29:00;99439.34;;;22.04;68.09
9415;BME280;4746;35.664;139.738;2023-04-07T09:31:50;99452.00;;;22.11;67.67
9415;BME280;4746;35.664;139.738;2023-04-07T09:34:30;99474.72;;;22.09;67.62
9415;BME280;4746;35.664;139.738;2023-04-07T09:36:58;99474.72;;;22.09;68.12
9415;BME280;4746;35.664;139.738;2023-04-07T09:39:26;99454.78;;;22.08;67.93
9415;BME280;4746;35.664;139.738;2023-04-07T09:41:55;99440.03;;;22.07;68.19
9415;BME280;4746;35.664;139.738;2023-04-07T09:44:24;99433.97;;;22.07;67.80
9415;BME280;4746;35.664;139.738;2023-04-07T09:46:58;99453.81;;;22.09;67.23
9415;BME280;4746;35.664;139.738;2023-04-07T09:49:47;99451.06;;;22.12;66.87
9415;BME280;4746;35.664;139.738;2023-04-07T09:52:47;99501.34;;;22.16;65.82
9415;BME280;4746;35.664;139.738;2023-04-07T09:55:18;99479.00;;;22.10;65.24
9415;BME280;4746;35.664;139.738;2023-04-07T09:57:51;99488.38;;;22.14;65.40
9415;BME280;4746;35.664;139.738;2023-04-07T10:00:22;99478.09;;;22.11;65.11
9415;BME280;4746;35.664;139.738;2023-04-07T10:02:50;99478.91;;;22.12;64.97
9415;BME280;4746;35.664;139.738;2023-04-07T10:05:19;99466.75;;;22.12;65.16
9415;BME280;4746;35.664;139.738;2023-04-07T10:07:49;99469.34;;;22.12;64.65
9415;BME280;4746;35.664;139.738;2023-04-07T10:10:17;99452.81;;;22.12;64.69
9415;BME280;4746;35.664;139.738;2023-04-07T10:12:45;99508.41;;;22.14;64.56
9415;BME280;4746;35.664;139.738;2023-04-07T10:15:16;99474.41;;;22.15;64.58
9415;BME280;4746;35.664;139.738;2023-04-07T10:17:47;99474.25;;;22.18;64.61
9415;BME280;4746;35.664;139.738;2023-04-07T10:20:21;99457.69;;;22.19;64.54
9415;BME280;4746;35.664;139.738;2023-04-07T10:22:51;99485.47;;;22.20;64.70
9415;BME280;4746;35.664;139.738;2023-04-07T10:25:23;99463.63;;;22.21;64.73
9415;BME280;4746;35.664;139.738;2023-04-07T10:28:03;99481.00;;;22.22;64.56
9415;BME280;4746;35.664;139.738;2023-04-07T10:30:33;99471.66;;;22.18;64.35
9415;BME280;4746;35.664;139.738;2023-04-07T10:33:02;99472.56;;;22.17;64.89
9415;BME280;4746;35.664;139.738;2023-04-07T10:36:06;99479.16;;;22.24;64.22
9415;BME280;4746;35.664;139.738;2023-04-07T10:38:34;99473.38;;;22.18;64.61
9415;BME280;4746;35.664;139.738;2023-04-07T10:41:37;99451.38;;;22.23;64.61
9415;BME280;4746;35.664;139.738;2023-04-07T10:44:06;99484.53;;;22.21;64.26
9415;BME280;4746;35.664;139.738;2023-04-07T10:49:16;99485.47;;;22.20;64.84
9415;BME280;4746;35.664;139.738;2023-04-07T10:51:44;99463.63;;;22.21;64.70
9415;BME280;4746;35.664;139.738;2023-04-07T10:54:31;99458.72;;;22.15;64.92
9415;BME280;4746;35.664;139.738;2023-04-07T10:57:07;99465.50;;;22.19;65.02
9415;BME280;4746;35.664;139.738;2023-04-07T11:02:41;99441.41;;;22.14;64.47
9415;BME280;4746;35.664;139.738;2023-04-07T11:05:21;99423.75;;;22.19;64.52
9415;BME280;4746;35.664;139.738;2023-04-07T11:07:53;99404.69;;;22.17;64.40
9415;BME280;4746;35.664;139.738;2023-04-07T11:10:23;99418.66;;;22.16;64.40
9415;BME280;4746;35.664;139.738;2023-04-07T11:13:06;99415.66;;;22.24;63.89
9415;BME280;4746;35.664;139.738;2023-04-07T11:15:36;99415.81;;;22.21;64.23
9415;BME280;4746;35.664;139.738;2023-04-07T11:18:13;99421.81;;;22.23;64.46
9415;BME280;4746;35.664;139.738;2023-04-07T11:20:48;99441.16;;;22.19;64.55
9415;BME280;4746;35.664;139.738;2023-04-07T11:23:18;99420.59;;;22.13;65.01
9415;BME280;4746;35.664;139.738;2023-04-07T11:25:49;99408.72;;;22.07;65.27
9415;BME280;4746;35.664;139.738;2023-04-07T11:28:19;99405.50;;;22.02;65.84
9415;BME280;4746;35.664;139.738;2023-04-07T11:30:52;99437.66;;;22.03;65.72
9415;BME280;4746;35.664;139.738;2023-04-07T11:33:29;99444.72;;;22.01;66.12
9415;BME280;4746;35.664;139.738;2023-04-07T11:36:01;99452.63;;;21.99;66.51
9415;BME280;4746;35.664;139.738;2023-04-07T11:38:36;99431.84;;;21.98;66.58
9415;BME280;4746;35.664;139.738;2023-04-07T11:41:15;99407.50;;;21.97;66.63
9415;BME280;4746;35.664;139.738;2023-04-07T11:43:42;99432.97;;;21.92;67.00
9415;BME280;4746;35.664;139.738;2023-04-07T11:46:17;99411.03;;;21.96;66.96
9415;BME280;4746;35.664;139.738;2023-04-07T11:48:45;99386.88;;;21.93;67.35
9415;BME280;4746;35.664;139.738;2023-04-07T11:51:22;99415.41;;;21.96;67.47
9415;BME280;4746;35.664;139.738;2023-04-07T11:53:56;99386.63;;;21.97;67.61
9415;BME280;4746;35.664;139.738;2023-04-07T11:56:23;99346.81;;;21.94;67.18
9415;BME280;4746;35.664;139.738;2023-04-07T11:58:54;99340.66;;;21.95;67.04
9415;BME280;4746;35.664;139.738;2023-04-07T12:01:38;99343.03;;;21.99;67.35
9415;BME280;4746;35.664;139.738;2023-04-07T12:04:13;99361.38;;;21.98;67.30
9415;BME280;4746;35.664;139.738;2023-04-07T12:06:42;99348.50;;;21.95;66.90
9415;BME280;4746;35.664;139.738;2023-04-07T12:09:30;99329.91;;;22.01;66.72
9415;BME280;4746;35.664;139.738;2023-04-07T12:12:01;99319.72;;;21.96;66.83
9415;BME280;4746;35.664;139.738;2023-04-07T12:14:29;99294.56;;;21.95;67.11
9415;BME280;4746;35.664;139.738;2023-04-07T12:16:58;99305.00;;;21.95;67.25
9415;BME280;4746;35.664;139.738;2023-04-07T12:19:31;99266.56;;;21.99;67.13
9415;BME280;4746;35.664;139.738;2023-04-07T12:22:08;99338.69;;;22.00;66.99
9415;BME280;4746;35.664;139.738;2023-04-07T12:24:36;99285.81;;;21.96;67.57
9415;BME280;4746;35.664;139.738;2023-04-07T12:27:03;99291.97;;;21.95;67.34
9415;BME280;4746;35.664;139.738;2023-04-07T12:29:32;99293.78;;;21.93;68.02
9415;BME280;4746;35.664;139.738;2023-04-07T12:31:59;99259.88;;;21.93;67.82
9415;BME280;4746;35.664;139.738;2023-04-07T12:34:27;99285.97;;;21.93;67.88
9415;BME280;4746;35.664;139.738;2023-04-07T12:36:54;99326.00;;;21.92;68.77
9415;BME280;4746;35.664;139.738;2023-04-07T12:39:22;99258.19;;;21.92;68.72
9415;BME280;4746;35.664;139.738;2023-04-07T12:41:50;99324.28;;;21.93;68.72
9415;BME280;4746;35.664;139.738;2023-04-07T12:44:18;99275.53;;;21.93;68.82
9415;BME280;4746;35.664;139.738;2023-04-07T12:46:46;99257.28;;;21.93;68.85
9415;BME280;4746;35.664;139.738;2023-04-07T12:49:13;99253.75;;;21.94;69.28
9415;BME280;4746;35.664;139.738;2023-04-07T12:51:42;99253.66;;;21.96;69.03
9415;BME280;4746;35.664;139.738;2023-04-07T12:54:09;99256.25;;;21.96;69.24
9415;BME280;4746;35.664;139.738;2023-04-07T12:56:37;99240.69;;;21.94;69.60
9415;BME280;4746;35.664;139.738;2023-04-07T12:59:06;99212.00;;;21.94;69.25
9415;BME280;4746;35.664;139.738;2023-04-07T13:01:34;99179.78;;;21.95;69.71
9415;BME280;4746;35.664;139.738;2023-04-07T13:04:03;99251.13;;;21.94;69.81
9415;BME280;4746;35.664;139.738;2023-04-07T13:06:30;99265.78;;;21.97;69.87
9415;BME280;4746;35.664;139.738;2023-04-07T13:08:58;99231.78;;;21.98;69.98
9415;BME280;4746;35.664;139.738;2023-04-07T13:11:25;99196.78;;;22.02;69.75
9415;BME280;4746;35.664;139.738;2023-04-07T13:13:53;99198.28;;;22.06;70.04
9415;BME280;4746;35.664;139.738;2023-04-07T13:16:21;99267.63;;;22.10;69.54
9415;BME280;4746;35.664;139.738;2023-04-07T13:18:48;99222.19;;;22.14;69.62
9415;BME280;4746;35.664;139.738;2023-04-07T13:21:16;99212.50;;;22.16;69.32
9415;BME280;4746;35.664;139.738;2023-04-07T13:23:43;99188.09;;;22.17;69.54
9415;BME280;4746;35.664;139.738;2023-04-07T13:26:11;99194.22;;;22.16;69.12
9415;BME280;4746;35.664;139.738;2023-04-07T13:28:38;99161.06;;;22.18;69.00